Time;durP1;ratioP1;P1;durP2;ratioP2;P2;SDS_P1;SDS_P2;PMS_P1;PMS_P2;Temp;Humidity;BMP_temperature;BMP_pressure;BME280_temperature;BME280_humidity;BME280_pressure;Samples;Min_cycle;Max_cycle;Signal;HPM_P1;HPM_P2
2021/07/12 00:02:21;;;;;;;;;;;;;;;26.01;61.66;100584.22;5049080;28;1114;-66
2021/07/12 00:05:07;;;;;;;;;;;;;;;26.00;63.13;100575.38;5049110;28;1338;-67
2021/07/12 00:07:52;;;;;;;;;;;;;;;25.97;63.00;100570.31;5047656;28;1910;-67
2021/07/12 00:10:37;;;;;;;;;;;;;;;26.04;63.22;100586.63;5048641;28;961;-68
2021/07/12 00:13:23;;;;;;;;;;;;;;;25.96;64.04;100581.94;5048727;28;1373;-69
2021/07/12 00:16:08;;;;;;;;;;;;;;;25.99;62.90;100576.34;5048703;28;1044;-66
2021/07/12 00:18:53;;;;;;;;;;;;;;;25.98;63.41;100571.16;5048603;28;1276;-68
2021/07/12 00:21:41;;;;;;;;;;;;;;;25.98;63.72;100572.00;5048916;28;1140;-65
2021/07/12 00:24:27;;;;;;;;;;;;;;;26.05;65.08;100551.75;5048905;28;1358;-68
2021/07/12 00:27:13;;;;;;;;;;;;;;;25.97;63.53;100553.44;5048159;28;2030;-65
2021/07/12 00:29:58;;;;;;;;;;;;;;;26.01;62.76;100541.53;5048407;28;1395;-67
2021/07/12 00:32:43;;;;;;;;;;;;;;;25.96;64.39;100546.44;5048275;28;1298;-68
2021/07/12 00:35:29;;;;;;;;;;;;;;;25.91;64.70;100530.81;5048046;28;688;-67
2021/07/12 00:38:14;;;;;;;;;;;;;;;25.95;64.27;100532.25;5047838;28;1270;-68
2021/07/12 00:41:00;;;;;;;;;;;;;;;25.94;65.73;100538.56;5048127;28;1087;-67
2021/07/12 00:43:45;;;;;;;;;;;;;;;25.97;63.36;100524.09;5048042;28;1274;-68
2021/07/12 00:46:30;;;;;;;;;;;;;;;25.87;66.21;100533.94;5047368;28;1040;-67
2021/07/12 00:49:16;;;;;;;;;;;;;;;25.85;65.90;100514.53;5046677;28;1934;-67
2021/07/12 00:52:01;;;;;;;;;;;;;;;25.87;65.96;100504.56;5047946;28;1366;-66
2021/07/12 00:54:47;;;;;;;;;;;;;;;25.93;65.52;100504.84;5047040;28;1290;-67
2021/07/12 00:57:32;;;;;;;;;;;;;;;25.97;65.60;100500.06;5047693;28;1141;-67
2021/07/12 01:00:18;;;;;;;;;;;;;;;25.98;63.76;100510.63;5048014;28;625;-67
2021/07/12 01:03:03;;;;;;;;;;;;;;;25.95;64.56;100505.56;5047792;28;1244;-67
2021/07/12 01:05:49;;;;;;;;;;;;;;;25.97;64.57;100498.25;5047745;28;1051;-66
2021/07/12 01:08:34;;;;;;;;;;;;;;;25.88;64.59;100498.25;5046122;28;1992;-67
2021/07/12 01:11:55;;;;;;;;;;;;;;;25.94;65.15;100497.69;5046508;28;1028;-67
2021/07/12 01:14:50;;;;;;;;;;;;;;;25.86;65.23;100506.41;5005290;28;1241;-67
2021/07/12 01:17:54;;;;;;;;;;;;;;;25.93;63.53;100506.69;5046797;28;921;-67
2021/07/12 01:21:05;;;;;;;;;;;;;;;25.94;63.06;100492.34;5047699;28;1076;-66
2021/07/12 01:23:56;;;;;;;;;;;;;;;25.95;64.42;100486.88;5048038;28;1297;-67
2021/07/12 01:26:41;;;;;;;;;;;;;;;25.90;63.69;100480.28;5048122;28;1061;-67
2021/07/12 01:29:46;;;;;;;;;;;;;;;25.92;64.30;100475.63;5047521;28;1269;-67
2021/07/12 01:32:38;;;;;;;;;;;;;;;25.81;66.55;100483.75;5048148;28;1066;-68
2021/07/12 01:35:59;;;;;;;;;;;;;;;25.74;65.65;100490.66;5046769;28;659;-68
2021/07/12 01:38:48;;;;;;;;;;;;;;;25.79;65.72;100464.38;5005425;28;1407;-68
2021/07/12 01:41:49;;;;;;;;;;;;;;;25.85;65.28;100483.34;5047869;28;1079;-67
2021/07/12 01:44:34;;;;;;;;;;;;;;;25.83;64.38;100480.00;5047781;28;1370;-66
2021/07/12 01:47:40;;;;;;;;;;;;;;;25.82;65.63;100472.13;5050376;28;1902;-66
2021/07/12 01:50:31;;;;;;;;;;;;;;;25.79;65.50;100467.06;5050113;28;1685;-66
2021/07/12 01:53:20;;;;;;;;;;;;;;;25.84;65.42;100462.97;5051261;28;1233;-66
2021/07/12 01:56:17;;;;;;;;;;;;;;;25.69;66.08;100456.38;5051196;28;1140;-66
2021/07/12 01:59:06;;;;;;;;;;;;;;;25.73;65.82;100448.94;5050266;28;1189;-66
2021/07/12 02:01:54;;;;;;;;;;;;;;;25.76;65.66;100451.31;5051130;28;1176;-66
2021/07/12 02:04:40;;;;;;;;;;;;;;;25.78;65.27;100449.34;5051110;28;1335;-66
2021/07/12 02:07:26;;;;;;;;;;;;;;;25.74;64.94;100443.47;5049719;28;1975;-66
2021/07/12 02:10:13;;;;;;;;;;;;;;;25.68;63.96;100448.53;5051181;28;604;-66
2021/07/12 02:12:59;;;;;;;;;;;;;;;25.72;65.27;100439.25;5051388;28;1261;-66
2021/07/12 02:15:49;;;;;;;;;;;;;;;25.61;64.83;100426.88;5050751;28;1149;-66
2021/07/12 02:18:36;;;;;;;;;;;;;;;25.63;65.43;100414.25;5050634;28;1374;-66
2021/07/12 02:21:21;;;;;;;;;;;;;;;25.53;65.44;100414.25;5050925;28;1077;-66
2021/07/12 02:24:08;;;;;;;;;;;;;;;25.64;63.12;100407.09;5050386;28;1237;-66
2021/07/12 02:26:54;;;;;;;;;;;;;;;25.57;64.04;100389.94;5050520;28;1059;-67
2021/07/12 02:29:40;;;;;;;;;;;;;;;25.65;62.41;100390.13;5050869;28;1251;-67
2021/07/12 02:32:26;;;;;;;;;;;;;;;25.65;64.83;100398.13;5050849;28;1123;-67
2021/07/12 02:35:12;;;;;;;;;;;;;;;25.66;64.69;100399.78;5050752;28;682;-67
2021/07/12 02:37:58;;;;;;;;;;;;;;;25.65;62.90;100396.31;5050909;28;1248;-67
2021/07/12 02:40:45;;;;;;;;;;;;;;;25.71;61.98;100382.41;5048943;28;1032;-67
2021/07/12 02:43:32;;;;;;;;;;;;;;;25.72;61.53;100383.22;5048846;28;1280;-67
2021/07/12 02:46:17;;;;;;;;;;;;;;;25.69;61.14;100378.16;5050409;28;1057;-67
2021/07/12 02:49:03;;;;;;;;;;;;;;;25.72;59.95;100369.88;5050248;28;1979;-67
2021/07/12 02:51:57;;;;;;;;;;;;;;;25.61;60.15;100356.69;5048797;28;1502;-67
2021/07/12 02:54:45;;;;;;;;;;;;;;;25.59;58.77;100356.84;5049017;28;1296;-67
2021/07/12 02:57:31;;;;;;;;;;;;;;;25.61;58.44;100340.69;5062792;28;1058;-66
2021/07/12 03:00:17;;;;;;;;;;;;;;;25.61;58.26;100348.69;5050295;28;695;-67
2021/07/12 03:03:02;;;;;;;;;;;;;;;25.64;57.53;100351.09;5050058;28;1290;-68
2021/07/12 03:05:53;;;;;;;;;;;;;;;25.56;58.02;100349.13;5050317;28;937;-67
2021/07/12 03:08:41;;;;;;;;;;;;;;;25.56;57.15;100345.63;5049909;28;1906;-67
2021/07/12 03:11:35;;;;;;;;;;;;;;;25.57;55.84;100350.78;5049873;28;956;-67
2021/07/12 03:14:33;;;;;;;;;;;;;;;25.50;55.66;100361.19;5049602;28;1279;-67
2021/07/12 03:17:19;;;;;;;;;;;;;;;25.52;55.08;100337.91;5049894;28;934;-67
2021/07/12 03:20:06;;;;;;;;;;;;;;;25.57;54.05;100347.28;5049419;28;1323;-67
2021/07/12 03:22:53;;;;;;;;;;;;;;;25.56;54.55;100346.47;5050049;28;1345;-67
2021/07/12 03:25:42;;;;;;;;;;;;;;;25.56;54.04;100349.13;5049309;28;919;-68
2021/07/12 03:28:28;;;;;;;;;;;;;;;25.60;53.69;100345.19;5049062;28;1898;-66
2021/07/12 03:31:13;;;;;;;;;;;;;;;25.56;54.08;100358.97;5049954;28;943;-66
2021/07/12 03:33:59;;;;;;;;;;;;;;;25.56;54.29;100354.47;5049810;28;1354;-67
2021/07/12 03:36:45;;;;;;;;;;;;;;;25.62;54.59;100342.38;5048206;28;1022;-66
2021/07/12 03:39:31;;;;;;;;;;;;;;;25.66;54.54;100327.75;5049495;28;1278;-67
2021/07/12 03:42:18;;;;;;;;;;;;;;;25.60;54.84;100326.50;5049689;28;1185;-66
2021/07/12 03:45:07;;;;;;;;;;;;;;;25.61;55.13;100324.69;5048747;28;1257;-68
2021/07/12 03:47:52;;;;;;;;;;;;;;;25.68;55.00;100301.81;5048768;28;1926;-68
2021/07/12 03:50:37;;;;;;;;;;;;;;;25.59;55.95;100303.50;5049288;28;958;-68
2021/07/12 03:53:23;;;;;;;;;;;;;;;25.59;55.92;100316.84;5047670;28;1406;-66
2021/07/12 03:56:08;;;;;;;;;;;;;;;25.60;56.27;100323.84;5049183;28;1067;-66
2021/07/12 03:58:54;;;;;;;;;;;;;;;25.65;56.23;100304.75;5047584;28;1291;-65
2021/07/12 04:01:39;;;;;;;;;;;;;;;25.62;56.15;100305.06;5049213;28;1130;-66
2021/07/12 04:04:24;;;;;;;;;;;;;;;25.62;56.38;100310.38;5049319;28;1272;-67
2021/07/12 04:07:10;;;;;;;;;;;;;;;25.62;56.57;100310.38;5048502;28;902;-65
2021/07/12 04:09:55;;;;;;;;;;;;;;;25.61;57.04;100304.19;5048789;28;1969;-66
2021/07/12 04:12:41;;;;;;;;;;;;;;;25.65;56.69;100278.94;5049152;28;1108;-66
2021/07/12 04:15:27;;;;;;;;;;;;;;;25.58;56.96;100290.31;5049097;28;597;-66
2021/07/12 04:18:12;;;;;;;;;;;;;;;25.59;57.08;100281.34;5048581;28;1259;-66
2021/07/12 04:20:57;;;;;;;;;;;;;;;25.53;57.38;100274.75;5048443;28;925;-66
2021/07/12 04:23:43;;;;;;;;;;;;;;;25.64;57.36;100276.41;5048396;28;1181;-66
2021/07/12 04:26:28;;;;;;;;;;;;;;;25.60;57.10;100265.16;5048950;28;863;-67
2021/07/12 04:29:13;;;;;;;;;;;;;;;25.61;57.52;100260.69;5048164;28;1910;-67
2021/07/12 04:32:00;;;;;;;;;;;;;;;25.59;57.61;100276.00;5048594;28;1063;-66
2021/07/12 04:34:46;;;;;;;;;;;;;;;25.56;57.32;100281.63;5048668;28;1371;-67
2021/07/12 04:37:31;;;;;;;;;;;;;;;25.56;57.40;100287.78;5048569;28;1033;-68
2021/07/12 04:40:16;;;;;;;;;;;;;;;25.57;57.61;100285.94;5048357;28;707;-67
2021/07/12 04:43:02;;;;;;;;;;;;;;;25.59;57.50;100274.19;5048128;28;1296;-67
2021/07/12 04:45:47;;;;;;;;;;;;;;;25.60;57.64;100264.31;5048151;28;1074;-67
2021/07/12 04:48:33;;;;;;;;;;;;;;;25.54;57.71;100255.06;5046804;28;1973;-67
2021/07/12 04:51:18;;;;;;;;;;;;;;;25.47;58.46;100246.75;5047115;28;1473;-67
2021/07/12 04:54:03;;;;;;;;;;;;;;;25.50;58.19;100243.03;5048150;28;1268;-68
2021/07/12 04:56:48;;;;;;;;;;;;;;;25.47;58.72;100244.09;5048188;28;972;-68
2021/07/12 04:59:38;;;;;;;;;;;;;;;25.45;58.75;100230.06;5048210;28;1376;-68
2021/07/12 05:02:24;;;;;;;;;;;;;;;25.47;58.73;100228.09;5048387;28;1083;-68
2021/07/12 05:05:10;;;;;;;;;;;;;;;25.57;57.58;100225.44;5048225;28;679;-67
2021/07/12 05:07:55;;;;;;;;;;;;;;;25.49;57.72;100215.53;5048735;28;1963;-68
2021/07/12 05:10:41;;;;;;;;;;;;;;;25.44;57.66;100204.38;5048263;28;1072;-68
2021/07/12 05:13:28;;;;;;;;;;;;;;;25.38;57.32;100198.81;5046971;28;1316;-68
2021/07/12 05:16:14;;;;;;;;;;;;;;;25.50;56.81;100195.84;5048014;28;1036;-67
2021/07/12 05:19:00;;;;;;;;;;;;;;;25.44;56.36;100191.06;5048677;28;1359;-66
2021/07/12 05:21:45;;;;;;;;;;;;;;;25.48;56.05;100188.94;5052561;28;1030;-67
2021/07/12 05:24:30;;;;;;;;;;;;;;;25.44;55.83;100188.38;5050895;28;1264;-66
2021/07/12 05:27:16;;;;;;;;;;;;;;;25.46;55.21;100193.59;5052584;28;1106;-67
2021/07/12 05:30:01;;;;;;;;;;;;;;;25.54;54.97;100197.25;5052344;28;1974;-67
2021/07/12 05:32:47;;;;;;;;;;;;;;;25.56;53.93;100213.13;5050774;28;1256;-67
2021/07/12 05:35:32;;;;;;;;;;;;;;;25.53;53.75;100216.06;5051654;28;655;-66
2021/07/12 05:38:18;;;;;;;;;;;;;;;25.51;53.29;100229.53;5051566;28;1283;-67
2021/07/12 05:41:03;;;;;;;;;;;;;;;25.56;53.25;100241.63;5051765;28;1013;-66
2021/07/12 05:43:49;;;;;;;;;;;;;;;25.56;53.01;100249.63;5051394;28;1371;-66
2021/07/12 05:46:34;;;;;;;;;;;;;;;25.51;53.39;100239.34;5050248;28;943;-65
2021/07/12 05:49:22;;;;;;;;;;;;;;;25.60;54.13;100248.31;5051429;28;1902;-65
2021/07/12 05:52:07;;;;;;;;;;;;;;;25.54;54.45;100255.06;5051386;28;1291;-66
2021/07/12 05:54:53;;;;;;;;;;;;;;;25.63;54.50;100278.22;5050501;28;1332;-66
2021/07/12 05:57:38;;;;;;;;;;;;;;;25.64;54.98;100271.06;5051931;28;919;-66
2021/07/12 06:00:25;;;;;;;;;;;;;;;25.60;55.86;100265.16;5050799;28;679;-67
2021/07/12 06:03:10;;;;;;;;;;;;;;;25.61;56.18;100266.00;5051652;28;1275;-67
2021/07/12 06:05:55;;;;;;;;;;;;;;;25.64;56.59;100258.56;5051457;28;894;-66
2021/07/12 06:08:41;;;;;;;;;;;;;;;25.61;57.32;100263.34;5051290;28;1963;-67
2021/07/12 06:11:26;;;;;;;;;;;;;;;25.64;57.46;100268.41;5051588;28;1087;-67
2021/07/12 06:14:12;;;;;;;;;;;;;;;25.65;57.85;100280.75;5051093;28;1288;-66
2021/07/12 06:16:58;;;;;;;;;;;;;;;25.66;57.52;100283.28;5051190;28;931;-66
2021/07/12 06:19:43;;;;;;;;;;;;;;;25.71;58.37;100277.53;5049900;28;1295;-67
2021/07/12 06:22:28;;;;;;;;;;;;;;;25.75;58.30;100273.56;5051436;28;1090;-66
2021/07/12 06:25:14;;;;;;;;;;;;;;;25.77;58.74;100275.13;5051488;28;604;-68
2021/07/12 06:27:59;;;;;;;;;;;;;;;25.73;58.88;100268.38;5051188;28;1228;-68
2021/07/12 06:30:45;;;;;;;;;;;;;;;25.80;58.18;100264.16;5049916;28;1131;-68
2021/07/12 06:33:30;;;;;;;;;;;;;;;25.87;58.53;100272.44;5050332;28;1251;-67
2021/07/12 06:36:15;;;;;;;;;;;;;;;25.84;58.36;100264.72;5050257;28;1024;-67
2021/07/12 06:39:01;;;;;;;;;;;;;;;25.90;57.59;100266.81;5048828;28;1238;-68
2021/07/12 06:41:46;;;;;;;;;;;;;;;25.83;58.81;100263.88;5049193;28;1054;-68
2021/07/12 06:44:32;;;;;;;;;;;;;;;25.83;58.89;100263.03;5048750;28;1318;-67
2021/07/12 06:47:17;;;;;;;;;;;;;;;25.83;59.19;100265.69;5049516;28;1251;-67
2021/07/12 06:50:03;;;;;;;;;;;;;;;25.84;59.16;100272.72;5050597;28;1969;-67
2021/07/12 06:52:49;;;;;;;;;;;;;;;25.89;59.00;100270.47;5049973;28;1533;-67
2021/07/12 06:55:34;;;;;;;;;;;;;;;25.95;58.74;100264.53;5049807;28;766;-68
2021/07/12 06:58:19;;;;;;;;;;;;;;;25.99;59.13;100263.28;5048385;28;1268;-68
2021/07/12 07:01:05;;;;;;;;;;;;;;;26.00;59.27;100267.59;5050175;28;1115;-68
2021/07/12 07:03:50;;;;;;;;;;;;;;;26.02;59.35;100269.13;5050448;28;1280;-69
2021/07/12 07:06:35;;;;;;;;;;;;;;;26.03;59.57;100261.97;5049710;28;941;-68
2021/07/12 07:09:21;;;;;;;;;;;;;;;26.02;59.66;100257.66;5049919;28;1969;-67
2021/07/12 07:12:07;;;;;;;;;;;;;;;26.03;59.40;100256.63;5048898;28;1126;-67
2021/07/12 07:14:52;;;;;;;;;;;;;;;26.06;59.62;100254.53;5049805;28;1350;-67
2021/07/12 07:17:38;;;;;;;;;;;;;;;26.06;59.88;100257.19;5049611;28;1036;-69
2021/07/12 07:20:23;;;;;;;;;;;;;;;26.06;59.63;100256.34;5050126;28;703;-69
2021/07/12 07:23:09;;;;;;;;;;;;;;;26.09;59.97;100248.03;5049520;28;1225;-71
2021/07/12 07:25:54;;;;;;;;;;;;;;;26.12;59.24;100245.09;5048622;28;1034;-68
2021/07/12 07:28:40;;;;;;;;;;;;;;;26.17;60.03;100253.53;5049331;28;1977;-68
2021/07/12 07:31:25;;;;;;;;;;;;;;;26.20;59.88;100258.59;5049723;28;1140;-70
2021/07/12 07:34:11;;;;;;;;;;;;;;;26.20;60.09;100263.09;5049219;28;1235;-68
2021/07/12 07:36:56;;;;;;;;;;;;;;;26.20;60.06;100258.59;5049128;28;1035;-68
2021/07/12 07:39:42;;;;;;;;;;;;;;;26.20;58.47;100258.59;5049173;28;1318;-69
2021/07/12 07:42:39;;;;;;;;;;;;;;;26.22;59.48;100245.09;5047154;28;942;-69
2021/07/12 07:45:25;;;;;;;;;;;;;;;26.22;59.51;100248.59;5049174;28;914;-68
2021/07/12 07:48:10;;;;;;;;;;;;;;;26.24;59.90;100259.97;5048991;28;1347;-70
2021/07/12 07:50:56;;;;;;;;;;;;;;;26.28;59.58;100256.03;5048754;28;1906;-69
2021/07/12 07:53:42;;;;;;;;;;;;;;;26.30;59.31;100248.69;5047368;28;1847;-69
2021/07/12 07:56:27;;;;;;;;;;;;;;;26.29;58.48;100248.84;5045943;28;1130;-69
2021/07/12 07:59:14;;;;;;;;;;;;;;;26.29;58.44;100247.03;5047039;28;1460;-69
2021/07/12 08:01:59;;;;;;;;;;;;;;;26.30;58.60;100246.03;5047059;28;1587;-68
2021/07/12 08:05:06;;;;;;;;;;;;;;;26.31;58.69;100245.03;5027201;28;1189;-68
2021/07/12 08:07:51;;;;;;;;;;;;;;;26.31;58.50;100239.69;5027214;28;1256;-69
2021/07/12 08:10:37;;;;;;;;;;;;;;;26.34;58.55;100233.22;5027632;28;1902;-68
2021/07/12 08:13:22;;;;;;;;;;;;;;;26.34;58.32;100228.72;5047812;28;1284;-68
2021/07/12 08:16:28;;;;;;;;;;;;;;;26.37;60.28;100225.75;5047772;28;1092;-64
2021/07/12 08:19:13;;;;;;;;;;;;;;;26.35;58.40;100227.75;5047116;28;1394;-68
2021/07/12 08:22:19;;;;;;;;;;;;;;;26.36;58.16;100232.06;5047532;28;1099;-68
2021/07/12 08:25:05;;;;;;;;;;;;;;;26.37;58.56;100231.09;5047192;28;1284;-67
2021/07/12 08:27:50;;;;;;;;;;;;;;;26.40;58.27;100222.78;5046107;28;1242;-70
2021/07/12 08:30:36;;;;;;;;;;;;;;;26.44;59.24;100212.66;5047434;28;1906;-69
2021/07/12 08:33:22;;;;;;;;;;;;;;;26.44;58.85;100232.19;5047260;28;1286;-67
2021/07/12 08:36:07;;;;;;;;;;;;;;;26.46;58.64;100227.53;5047153;28;1075;-67
2021/07/12 08:38:52;;;;;;;;;;;;;;;26.50;59.04;100228.09;5045197;28;1451;-66
2021/07/12 08:41:38;;;;;;;;;;;;;;;26.50;58.16;100218.25;5046701;28;966;-68
2021/07/12 08:44:23;;;;;;;;;;;;;;;26.50;58.37;100212.91;5046217;28;1456;-67
2021/07/12 08:47:08;;;;;;;;;;;;;;;26.59;59.76;100208.47;5046279;28;973;-69
2021/07/12 08:49:54;;;;;;;;;;;;;;;26.57;59.13;100205.94;5027730;28;1969;-67
2021/07/12 08:52:44;;;;;;;;;;;;;;;26.56;58.91;100217.66;5029970;28;1599;-67
2021/07/12 08:55:30;;;;;;;;;;;;;;;26.57;59.04;100219.31;5042647;28;872;-69
2021/07/12 08:58:22;;;;;;;;;;;;;;;26.56;59.32;100225.66;5045990;28;1300;-69
2021/07/12 09:01:09;;;;;;;;;;;;;;;26.56;57.70;100228.34;5045201;28;1126;-68
2021/07/12 09:03:54;;;;;;;;;;;;;;;26.58;59.17;100225.50;5058690;28;1434;-69
2021/07/12 09:07:00;;;;;;;;;;;;;;;26.58;60.09;100237.03;5045389;28;906;-69
2021/07/12 09:10:15;;;;;;;;;;;;;;;26.56;58.47;100228.34;5045867;28;1938;-67
2021/07/12 09:13:00;;;;;;;;;;;;;;;26.61;60.21;100241.22;5042683;28;1310;-69
2021/07/12 09:15:45;;;;;;;;;;;;;;;26.60;59.30;100251.06;5045838;28;1076;-68
2021/07/12 09:18:34;;;;;;;;;;;;;;;26.63;60.35;100244.56;5044241;28;1337;-68
2021/07/12 09:21:20;;;;;;;;;;;;;;;26.63;58.70;100245.41;5046724;28;1065;-68
2021/07/12 09:24:25;;;;;;;;;;;;;;;26.65;59.61;100263.13;5046493;28;1335;-70
2021/07/12 09:27:19;;;;;;;;;;;;;;;26.69;59.58;100267.19;5027004;28;1135;-66
2021/07/12 09:30:12;;;;;;;;;;;;;;;26.71;60.02;100276.75;5043419;28;1935;-67
2021/07/12 09:32:57;;;;;;;;;;;;;;;26.71;59.33;100279.41;5046612;28;1184;-66
2021/07/12 09:35:43;;;;;;;;;;;;;;;26.73;60.09;100281.91;5046157;28;1136;-65
2021/07/12 09:38:30;;;;;;;;;;;;;;;26.73;59.98;100280.09;5059501;28;1229;-66
2021/07/12 09:41:28;;;;;;;;;;;;;;;26.76;60.42;100277.13;5046722;28;1090;-67
2021/07/12 09:44:14;;;;;;;;;;;;;;;26.80;61.90;100283.88;5045730;28;1319;-66
2021/07/12 09:47:07;;;;;;;;;;;;;;;26.74;61.33;100284.44;5044750;28;1094;-65
2021/07/12 09:50:12;;;;;;;;;;;;;;;26.74;62.15;100280.94;5045845;28;1963;-66
2021/07/12 09:53:06;;;;;;;;;;;;;;;26.79;62.02;100276.81;5045848;28;1427;-68
2021/07/12 09:55:53;;;;;;;;;;;;;;;26.84;62.56;100279.91;5045917;28;1025;-70
2021/07/12 09:58:38;;;;;;;;;;;;;;;26.85;61.80;100267.38;5046915;28;1359;-69
2021/07/12 10:01:24;;;;;;;;;;;;;;;26.87;61.60;100268.09;5047268;28;1173;-68
2021/07/12 10:04:11;;;;;;;;;;;;;;;26.92;62.49;100271.16;5038410;28;1635;-72
2021/07/12 10:06:56;;;;;;;;;;;;;;;26.91;62.53;100270.31;5046797;28;1198;-71
2021/07/12 10:09:42;;;;;;;;;;;;;;;26.93;62.70;100272.84;5049734;28;1898;-67
2021/07/12 10:12:27;;;;;;;;;;;;;;;26.94;62.29;100271.81;5049901;28;1245;-66
2021/07/12 10:15:14;;;;;;;;;;;;;;;26.95;63.18;100263.66;5048458;28;1375;-68
2021/07/12 10:17:59;;;;;;;;;;;;;;;26.94;62.10;100259.31;5049324;28;1490;-69
2021/07/12 10:20:45;;;;;;;;;;;;;;;26.97;64.95;100274.19;5049295;28;1333;-68
2021/07/12 10:23:30;;;;;;;;;;;;;;;27.00;63.85;100273.88;5049468;28;1502;-68
2021/07/12 10:26:35;;;;;;;;;;;;;;;26.99;63.75;100272.22;5049558;28;1257;-68
2021/07/12 10:29:27;;;;;;;;;;;;;;;26.98;62.66;100271.38;5049258;28;1967;-69
2021/07/12 10:32:13;;;;;;;;;;;;;;;26.93;62.08;100262.97;5029578;28;950;-68
2021/07/12 10:34:58;;;;;;;;;;;;;;;26.99;62.15;100282.91;5033370;28;1260;-68
2021/07/12 10:37:57;;;;;;;;;;;;;;;27.01;62.22;100287.13;5048108;28;1287;-67
2021/07/12 10:40:59;;;;;;;;;;;;;;;27.02;63.08;100291.44;5048129;28;1083;-70
2021/07/12 10:43:50;;;;;;;;;;;;;;;27.02;63.06;100290.63;5049086;28;1381;-70
2021/07/12 10:46:39;;;;;;;;;;;;;;;27.03;62.87;100292.31;5048034;28;1018;-72
2021/07/12 10:49:38;;;;;;;;;;;;;;;27.05;62.41;100293.81;5029046;28;1981;-69
2021/07/12 10:52:41;;;;;;;;;;;;;;;27.03;62.23;100286.94;5041874;28;1611;-68
2021/07/12 10:55:31;;;;;;;;;;;;;;;27.01;62.39;100283.59;5029133;28;652;-69
2021/07/12 10:58:19;;;;;;;;;;;;;;;27.04;63.81;100285.97;5029332;28;1303;-69
2021/07/12 11:01:05;;;;;;;;;;;;;;;27.06;62.50;100290.16;5029256;28;1024;-66
2021/07/12 11:03:50;;;;;;;;;;;;;;;27.08;62.86;100300.72;5029071;28;1288;-70
2021/07/12 11:06:52;;;;;;;;;;;;;;;27.10;62.90;100290.72;5041907;28;1081;-71
2021/07/12 11:09:56;;;;;;;;;;;;;;;27.11;63.36;100282.53;5027352;28;1910;-68
2021/07/12 11:13:00;;;;;;;;;;;;;;;27.00;61.51;100282.75;5029372;28;1046;-68
2021/07/12 11:15:46;;;;;;;;;;;;;;;26.84;59.63;100279.09;5029940;28;1060;-69
2021/07/12 11:18:52;;;;;;;;;;;;;;;26.74;57.75;100283.59;5029492;28;1284;-73
2021/07/12 11:21:38;;;;;;;;;;;;;;;26.61;57.92;100287.47;5029389;28;1845;-67
2021/07/12 11:24:23;;;;;;;;;;;;;;;26.55;57.10;100290.75;5045650;28;1392;-69
2021/07/12 11:27:09;;;;;;;;;;;;;;;26.52;56.27;100287.53;5048437;28;1265;-73
2021/07/12 11:30:14;;;;;;;;;;;;;;;26.48;56.11;100278.97;5047706;28;1898;-69
2021/07/12 11:32:59;;;;;;;;;;;;;;;26.43;56.91;100288.41;5048183;28;1242;-69
2021/07/12 11:35:53;;;;;;;;;;;;;;;26.35;56.30;100285.66;5047226;28;1015;-71
2021/07/12 11:38:39;;;;;;;;;;;;;;;26.26;56.81;100281.19;5046244;28;1226;-68
2021/07/12 11:41:24;;;;;;;;;;;;;;;26.24;56.43;100285.81;5045796;28;1133;-70
2021/07/12 11:44:11;;;;;;;;;;;;;;;26.20;56.33;100277.28;5040078;28;1412;-71
2021/07/12 11:46:59;;;;;;;;;;;;;;;26.18;55.90;100284.56;5047565;28;1027;-71
2021/07/12 11:49:48;;;;;;;;;;;;;;;26.13;55.55;100278.81;5047849;28;1938;-68
2021/07/12 11:52:33;;;;;;;;;;;;;;;26.07;55.42;100271.38;5047928;28;1412;-67
2021/07/12 11:55:21;;;;;;;;;;;;;;;26.04;55.64;100272.53;5041117;28;1543;-72
2021/07/12 11:58:06;;;;;;;;;;;;;;;26.01;55.73;100270.16;5046710;28;1322;-68
2021/07/12 12:00:54;;;;;;;;;;;;;;;26.08;54.93;100265.06;5047215;28;1057;-67
2021/07/12 12:03:40;;;;;;;;;;;;;;;25.98;54.87;100266.91;5047312;28;1277;-67
2021/07/12 12:06:25;;;;;;;;;;;;;;;25.99;55.14;100277.44;5047362;28;1159;-73
2021/07/12 12:09:10;;;;;;;;;;;;;;;26.00;54.61;100278.28;5047274;28;1345;-71
2021/07/12 12:11:56;;;;;;;;;;;;;;;26.02;54.69;100287.00;5047484;28;1899;-71
2021/07/12 12:14:42;;;;;;;;;;;;;;;26.03;54.63;100286.00;5046667;28;1592;-70
2021/07/12 12:17:27;;;;;;;;;;;;;;;25.98;54.82;100278.44;5031141;28;1372;-71
2021/07/12 12:20:18;;;;;;;;;;;;;;;25.97;54.36;100282.09;5047652;28;680;-71
2021/07/12 12:23:05;;;;;;;;;;;;;;;25.97;54.61;100298.09;5047182;28;1498;-69
2021/07/12 12:25:56;;;;;;;;;;;;;;;25.99;54.60;100292.63;5046053;28;1120;-71
2021/07/12 12:28:50;;;;;;;;;;;;;;;26.01;54.65;100288.81;5046480;28;1232;-68
2021/07/12 12:31:36;;;;;;;;;;;;;;;26.21;54.42;100292.28;5046635;28;1906;-67
2021/07/12 12:34:31;;;;;;;;;;;;;;;26.32;54.70;100297.47;5047016;28;1256;-67
2021/07/12 12:37:16;;;;;;;;;;;;;;;26.42;54.66;100292.06;5047116;28;1018;-69
2021/07/12 12:40:18;;;;;;;;;;;;;;;26.48;58.90;100281.63;5045142;28;1594;-70
2021/07/12 12:43:08;;;;;;;;;;;;;;;26.48;59.17;100288.78;5040167;28;1401;-71
2021/07/12 12:45:59;;;;;;;;;;;;;;;26.48;59.64;100296.81;5035608;28;982;-68
2021/07/12 12:48:45;;;;;;;;;;;;;;;26.45;59.61;100297.94;5043114;28;1557;-65
2021/07/12 12:51:32;;;;;;;;;;;;;;;26.51;59.18;100281.34;5026994;28;1971;-64
2021/07/12 12:54:17;;;;;;;;;;;;;;;26.54;59.35;100289.06;5026389;28;1402;-66
2021/07/12 12:57:04;;;;;;;;;;;;;;;26.53;59.61;100291.88;5027015;28;1090;-66
2021/07/12 12:59:49;;;;;;;;;;;;;;;26.53;59.47;100295.41;5026925;28;1376;-68
2021/07/12 13:02:38;;;;;;;;;;;;;;;26.53;59.49;100283.88;5027199;28;1077;-68
2021/07/12 13:05:25;;;;;;;;;;;;;;;26.51;59.81;100292.00;5027379;28;752;-66
2021/07/12 13:08:10;;;;;;;;;;;;;;;26.50;58.78;100285.00;5026882;28;1253;-66
2021/07/12 13:10:56;;;;;;;;;;;;;;;26.49;59.15;100286.00;5026360;28;1974;-68
2021/07/12 13:13:42;;;;;;;;;;;;;;;26.54;59.00;100282.84;5025029;28;1295;-65
2021/07/12 13:16:30;;;;;;;;;;;;;;;26.53;59.30;100287.38;5026429;28;1151;-67
2021/07/12 13:19:26;;;;;;;;;;;;;;;26.52;59.27;100275.00;5026254;28;1330;-63
2021/07/12 13:22:19;;;;;;;;;;;;;;;26.55;58.89;100277.38;5037110;28;1549;-63
2021/07/12 13:25:12;;;;;;;;;;;;;;;26.58;59.53;100273.56;5046376;28;1237;-66
2021/07/12 13:28:07;;;;;;;;;;;;;;;26.60;58.70;100277.78;5046577;28;1345;-67
2021/07/12 13:30:52;;;;;;;;;;;;;;;26.55;58.50;100266.69;5046185;28;1914;-65
2021/07/12 13:33:37;;;;;;;;;;;;;;;26.54;57.57;100266.84;5046590;28;1298;-66
2021/07/12 13:36:23;;;;;;;;;;;;;;;26.53;58.57;100266.03;5046694;28;976;-68
2021/07/12 13:39:11;;;;;;;;;;;;;;;26.57;58.30;100274.56;5046017;28;1273;-66
2021/07/12 13:41:56;;;;;;;;;;;;;;;26.57;57.51;100269.22;5048826;28;970;-71
2021/07/12 13:44:41;;;;;;;;;;;;;;;26.56;57.90;100265.72;5038721;28;1273;-68
2021/07/12 13:47:27;;;;;;;;;;;;;;;26.59;58.32;100276.09;5030415;28;1093;-66
2021/07/12 13:50:16;;;;;;;;;;;;;;;26.59;58.21;100269.91;5054611;28;1969;-68
2021/07/12 13:53:03;;;;;;;;;;;;;;;26.54;58.22;100265.00;5049626;28;1673;-67
2021/07/12 13:55:50;;;;;;;;;;;;;;;26.55;57.82;100268.53;5063187;28;1194;-65
2021/07/12 13:58:35;;;;;;;;;;;;;;;26.60;57.57;100261.75;5049894;28;1268;-75
2021/07/12 14:01:20;;;;;;;;;;;;;;;26.61;57.92;100268.78;5049844;28;1157;-71
2021/07/12 14:04:06;;;;;;;;;;;;;;;26.61;58.14;100257.25;5048770;28;1396;-72
2021/07/12 14:06:51;;;;;;;;;;;;;;;26.63;57.65;100249.91;5062908;28;1064;-69
2021/07/12 14:09:37;;;;;;;;;;;;;;;26.57;58.20;100251.34;5048297;28;1371;-69
2021/07/12 14:12:23;;;;;;;;;;;;;;;26.56;58.55;100255.03;5049901;28;1910;-66
2021/07/12 14:15:11;;;;;;;;;;;;;;;26.55;59.01;100256.03;5049731;28;1374;-68
2021/07/12 14:17:56;;;;;;;;;;;;;;;26.59;58.76;100260.09;5049871;28;1224;-67
2021/07/12 14:20:42;;;;;;;;;;;;;;;26.62;58.97;100261.59;5049941;28;954;-68
2021/07/12 14:23:27;;;;;;;;;;;;;;;26.63;58.94;100259.78;5031187;28;1387;-68
2021/07/12 14:26:19;;;;;;;;;;;;;;;26.66;58.56;100267.50;5049832;28;1142;-67
2021/07/12 14:29:05;;;;;;;;;;;;;;;26.68;58.60;100268.19;5049229;28;1295;-68
2021/07/12 14:31:51;;;;;;;;;;;;;;;26.67;58.43;100266.47;5048196;28;1999;-67
2021/07/12 14:34:36;;;;;;;;;;;;;;;26.65;58.47;100268.47;5048155;28;1288;-66
2021/07/12 14:37:22;;;;;;;;;;;;;;;26.65;58.36;100263.13;5049736;28;1080;-67